createdAt,value
2022-10-14T00:17:34.978Z,10.80
2022-10-14T00:36:14.219Z,10.70
2022-10-14T00:54:53.750Z,12.40
2022-10-14T01:13:33.655Z,15.40
2022-10-14T01:32:12.655Z,11.30
2022-10-14T01:50:50.693Z,11.70
2022-10-14T02:09:31.560Z,13.80
2022-10-14T02:28:09.694Z,16.90
2022-10-14T02:46:50.353Z,16.00
2022-10-14T03:05:30.418Z,16.40
2022-10-14T03:24:10.203Z,14.00
2022-10-14T04:01:30.318Z,11.30
2022-10-14T04:20:10.515Z,11.70
2022-10-14T04:38:49.568Z,11.20
2022-10-14T04:57:30.174Z,14.50
2022-10-14T05:16:12.119Z,13.80
2022-10-14T05:34:46.700Z,15.40
2022-10-14T05:53:27.215Z,10.40
2022-10-14T06:12:08.002Z,14.00
2022-10-14T06:30:50.567Z,12.90
2022-10-14T06:49:36.964Z,10.30
2022-10-14T07:08:15.429Z,12.10
2022-10-14T07:26:56.477Z,11.90
2022-10-14T07:45:39.385Z,14.30
2022-10-14T08:04:19.792Z,9.20
2022-10-14T08:23:04.962Z,7.70
2022-10-14T08:41:49.347Z,10.90
2022-10-14T09:00:29.205Z,8.00
2022-10-14T09:19:09.558Z,11.00
2022-10-14T09:37:54.308Z,8.20
2022-10-14T10:15:35.740Z,6.80
2022-10-14T10:34:25.396Z,6.20
2022-10-14T10:53:18.379Z,5.10
2022-10-14T11:12:01.130Z,5.90
2022-10-14T11:30:43.206Z,5.60
2022-10-14T11:49:22.238Z,4.90
2022-10-14T12:08:11.293Z,5.20
2022-10-14T12:26:52.336Z,3.40
2022-10-14T12:45:34.734Z,4.30
2022-10-14T13:04:16.137Z,3.40
2022-10-14T13:41:39.346Z,5.60
2022-10-14T14:00:39.979Z,6.00
2022-10-14T14:19:03.736Z,5.30
2022-10-14T14:37:53.191Z,6.70
2022-10-14T14:55:52.625Z,6.40
2022-10-14T15:32:56.565Z,8.00
2022-10-14T16:10:06.134Z,7.00
2022-10-14T16:28:42.007Z,12.10
2022-10-14T16:47:18.916Z,10.40
2022-10-14T17:05:54.530Z,9.80
2022-10-14T17:43:06.576Z,10.00
2022-10-14T18:02:02.925Z,8.50
2022-10-14T18:20:23.172Z,9.50
2022-10-14T18:39:01.637Z,7.80
2022-10-14T18:57:39.456Z,9.90
2022-10-14T19:16:16.906Z,9.50
2022-10-14T19:34:53.922Z,13.50
2022-10-14T19:53:32.886Z,12.30
2022-10-14T20:12:12.849Z,12.00
2022-10-14T20:30:50.470Z,8.90
2022-10-14T20:49:29.955Z,12.70
2022-10-14T21:08:09.152Z,13.30
2022-10-14T21:26:47.179Z,10.10
2022-10-14T21:45:28.786Z,13.90
2022-10-14T22:04:03.766Z,14.30
2022-10-14T22:22:42.626Z,16.00
2022-10-14T22:41:21.124Z,12.60
2022-10-14T22:59:59.782Z,16.80
2022-10-14T23:37:19.352Z,14.50
2022-10-14T23:55:58.561Z,16.30
